Tropical Cyclones
[Index]
Main Index Home Page Stock Weather Photos Extreme Storms Discussion Storm News and Storm Chasing Reports Tropical Cyclones / Hurricanes / Typhoons Weather Data and Links Wild Fires / Bushfires Weather Observation Techniques Weather Picture Catalogue Tornado Pictures and Reports Stock Video Footage and DVDs for sale
Season 1992-1993 Tropical Cyclone ROGER Track Map
Season 1992-1993 Summaries: [BoM-AU] [JTWC-AU] [JTWC-SIO] [JTWC-SPAC] [JTWC-SH]
<<- Previous TC | JTWC 1992-1993 Season | Next TC ->>

click for intensity scale information  Lat/long Grid: Show Hide

 Date Labels: Show Hide

Joint Typhoon Warning Centre Cyclone Data

Name: ROGER

10 Mar 1993 06:00 UTC to 22 Mar 1993 06:00 UTC

    date/time    lat    long     hPa   cat  kts
1993-03-10 06    8.2   163.5                  20          
1993-03-10 12    8.8   162.7                  20          
1993-03-10 18    9.2   161.8                  20          
1993-03-11 00    9.6   160.9                  20          
1993-03-11 06    9.8   159.9                  20          
1993-03-11 12    9.9   158.9                  25          
1993-03-11 18   10.0   158.0                  25          
1993-03-12 00   10.3   157.2                  25          
1993-03-12 06   10.8   156.5                  30          
1993-03-12 12   11.6   156.3                  30          
1993-03-12 18   12.4   156.3                  35          
1993-03-13 00   13.3   156.2            1     40          
1993-03-13 06   14.1   156.1            1     40          
1993-03-13 12   14.7   155.9            1     45          
1993-03-13 18   15.3   155.7            1     45          
1993-03-14 00   15.9   155.6            1     45          
1993-03-14 06   16.5   155.5            1     50          
1993-03-14 12   17.1   155.5            1     50          
1993-03-14 18   17.7   155.5            1     50          
1993-03-15 00   18.7   155.6            2     55          
1993-03-15 06   19.7   156.0            2     55          
1993-03-15 12   20.7   156.0            2     55          
1993-03-15 18   21.5   155.9            2     55          
1993-03-16 00   22.1   155.8            1     50          
1993-03-16 06   22.6   155.7            1     50          
1993-03-16 12   23.1   155.7            1     50          
1993-03-16 18   23.7   155.7            1     50          
1993-03-17 00   24.2   155.7            1     50          
1993-03-17 06   24.5   155.9            1     45          
1993-03-17 12   24.2   156.2            1     45          
1993-03-17 18   23.9   156.7            1     40          
1993-03-18 00   23.4   157.0            1     40          
1993-03-18 06   22.9   157.3                  35          
1993-03-18 12   22.4   157.5                  35          
1993-03-18 18   21.9   157.8                  30          
1993-03-19 00   21.4   158.1                  30          
1993-03-19 06   20.9   158.5                  30          
1993-03-19 12   20.6   158.8                  30          
1993-03-19 18   20.3   159.0                  30          
1993-03-20 00   20.1   159.1                  30          
1993-03-20 06   20.0   159.3                  30          
1993-03-20 12   19.9   159.5                  30          
1993-03-20 18   20.4   160.0                  30          
1993-03-21 00   21.1   161.0                  30          
1993-03-21 06   21.7   162.2                  30          
1993-03-21 12   22.3   163.4                  35          
1993-03-21 18   23.1   165.2                  35          
1993-03-22 00   24.1   167.7                  35          
1993-03-22 06   25.1   170.3                  35          
Winds are 1-min average.

Tropical cyclone tracks developed by Michael Bath using data from the Joint Typhoon Warning Centre Best Tracks and Google Maps.


[Australian Severe Weather index] [Copyright Notice] [Email Contacts] [Search This Site] [Privacy Policy]
Document: tropical_cyclone_roger.htm Updated: 18 September 2016